ETEB/QOB METAR and TAF weather

Enter ICAO airport designator
Station Type Date Time Source
ETEB METAR 2019/04/18 19:56 UTC NOAA

ETEB 181956Z AUTO 07010KT 9999 CLR 14/01 A3028 RMK AO2 SLP265 T01380014 $


Station Type Date Time Source
ETEB Decoded METAR 2019/04/18 19:56 UTC NOAA

Ansbach / Katterbach, Germany (ETEB) 49-19N 010-38E 476M
Apr 18, 2019 - 03:56 PM EDT / 2019.04.18 1956 UTC
Wind: from the ENE (070 degrees) at 12 MPH (10 KT):0
Visibility: greater than 7 mile(s):0
Sky conditions: clear
Temperature: 56.8 F (13.8 C)
Dew Point: 34.5 F (1.4 C)
Relative Humidity: 42%
Pressure (altimeter): 30.28 in. Hg (1025 hPa)
ob: ETEB 181956Z AUTO 07010KT 9999 CLR 14/01 A3028 RMK AO2 SLP265 T01380014
cycle: 20

Station Type Date Time Source
ETEB TAF 2019/04/18 16:36 UTC NOAA

TAF
AMD ETEB 181634Z 1816/1919 10009KT 9999 SCT100 QNH3022INS
BECMG 1908/1909 10012G20KT 9999 SCT060 QNH3035INS
BECMG 1917/1918 10009KT 9999 SKC QNH3037INS TX21/1816Z TN06/1904Z

Example: see airport list